createdAt,value
2018-10-04T00:00:12.095Z,9.95
2018-10-04T00:03:15.661Z,10.07
2018-10-04T00:06:19.072Z,10.12
2018-10-04T00:09:22.630Z,10.14
2018-10-04T00:12:26.081Z,10.10
2018-10-04T00:15:29.581Z,10.15
2018-10-04T00:18:33.062Z,10.06
2018-10-04T00:21:36.480Z,9.98
2018-10-04T00:24:40.184Z,9.96
2018-10-04T00:27:43.594Z,9.81
2018-10-04T00:30:47.085Z,9.63
2018-10-04T00:33:50.596Z,9.41
2018-10-04T00:36:53.998Z,9.28
2018-10-04T00:39:57.398Z,9.15
2018-10-04T00:43:00.820Z,9.03
2018-10-04T00:46:04.336Z,8.98
2018-10-04T00:49:07.841Z,9.06
2018-10-04T00:52:11.218Z,9.13
2018-10-04T00:55:14.781Z,9.13
2018-10-04T00:58:18.307Z,9.09
2018-10-04T01:01:21.707Z,8.99
2018-10-04T01:04:25.196Z,8.91
2018-10-04T01:07:28.623Z,8.85
2018-10-04T01:10:32.061Z,8.73
2018-10-04T01:13:35.514Z,8.68
2018-10-04T01:16:39.121Z,8.75
2018-10-04T01:19:42.547Z,8.73
2018-10-04T01:22:46.024Z,8.69
2018-10-04T01:25:49.420Z,8.74
2018-10-04T01:28:52.829Z,8.78
2018-10-04T01:31:56.230Z,8.69
2018-10-04T01:34:59.730Z,8.63
2018-10-04T01:38:03.130Z,8.63
2018-10-04T01:41:06.857Z,8.65
2018-10-04T01:44:10.335Z,8.63
2018-10-04T01:47:13.751Z,8.63
2018-10-04T01:50:17.173Z,8.60
2018-10-04T01:53:20.666Z,8.58
2018-10-04T01:56:24.150Z,8.66
2018-10-04T01:59:27.768Z,8.65
2018-10-04T02:02:31.267Z,8.70
2018-10-04T02:05:34.879Z,8.75
2018-10-04T02:08:38.535Z,8.83
2018-10-04T02:11:41.964Z,8.90
2018-10-04T02:14:45.361Z,8.97
2018-10-04T02:17:48.772Z,9.02
2018-10-04T02:20:52.162Z,9.11
2018-10-04T02:23:55.635Z,9.15
2018-10-04T02:26:59.072Z,9.14
2018-10-04T02:30:02.442Z,9.11
2018-10-04T02:33:05.929Z,9.00
2018-10-04T02:36:09.400Z,9.00
2018-10-04T02:39:12.875Z,9.04
2018-10-04T02:42:16.281Z,8.98
2018-10-04T02:45:19.748Z,8.90
2018-10-04T02:48:23.151Z,8.87
2018-10-04T02:51:26.578Z,8.88
2018-10-04T02:54:30.003Z,8.90
2018-10-04T02:57:33.488Z,8.89
2018-10-04T03:00:37.298Z,8.91
2018-10-04T03:03:40.671Z,8.97
2018-10-04T03:06:44.164Z,8.94
2018-10-04T03:09:47.550Z,8.92
2018-10-04T03:12:51.662Z,8.85
2018-10-04T03:15:55.099Z,8.80
2018-10-04T03:18:58.487Z,8.79
2018-10-04T03:22:01.879Z,8.80
2018-10-04T03:25:06.077Z,8.81
2018-10-04T03:28:09.507Z,8.82
2018-10-04T03:31:12.934Z,8.84
2018-10-04T03:34:16.311Z,8.84
2018-10-04T03:37:19.715Z,8.84
2018-10-04T03:40:23.099Z,8.80
2018-10-04T03:43:26.515Z,8.79
2018-10-04T03:46:29.909Z,8.26
2018-10-04T03:49:33.391Z,7.95
2018-10-04T03:52:36.804Z,7.76
2018-10-04T03:55:40.217Z,7.57
2018-10-04T03:58:43.606Z,7.48
2018-10-04T04:01:47.006Z,7.45
2018-10-04T04:04:50.418Z,7.47
2018-10-04T04:07:53.972Z,7.45
2018-10-04T04:10:57.503Z,7.47
2018-10-04T04:14:01.012Z,7.45
2018-10-04T04:17:04.557Z,7.46
2018-10-04T04:20:08.039Z,7.54
2018-10-04T04:23:11.545Z,7.54
2018-10-04T04:26:15.039Z,7.57
2018-10-04T04:29:18.583Z,7.58
2018-10-04T04:32:22.163Z,7.57
2018-10-04T04:35:25.648Z,7.54
2018-10-04T04:38:29.186Z,7.48
2018-10-04T04:41:32.682Z,7.46
2018-10-04T04:44:36.142Z,7.42
2018-10-04T04:47:39.638Z,7.45
2018-10-04T04:50:43.137Z,7.46
2018-10-04T04:53:46.623Z,7.44
2018-10-04T04:56:50.405Z,7.39
2018-10-04T04:59:53.848Z,7.42
2018-10-04T05:02:57.695Z,7.42
2018-10-04T05:06:01.191Z,7.42
2018-10-04T05:09:04.895Z,7.34
2018-10-04T05:12:08.383Z,7.32
2018-10-04T05:15:11.899Z,7.30
2018-10-04T05:18:16.423Z,7.33
2018-10-04T05:21:19.908Z,7.38
2018-10-04T05:24:23.546Z,7.36
2018-10-04T05:27:27.424Z,7.34
2018-10-04T05:30:30.941Z,7.20
2018-10-04T05:33:34.517Z,7.07
2018-10-04T05:36:37.923Z,7.01
2018-10-04T05:39:41.340Z,6.95
2018-10-04T05:42:44.836Z,6.92
2018-10-04T05:45:48.352Z,6.94
2018-10-04T05:48:51.824Z,6.96
2018-10-04T05:51:55.265Z,6.95
2018-10-04T05:54:58.766Z,6.92
2018-10-04T05:58:02.264Z,6.94
2018-10-04T06:01:05.779Z,7.01
2018-10-04T06:04:09.267Z,7.04
2018-10-04T06:07:12.847Z,7.11
2018-10-04T06:10:16.274Z,7.24
2018-10-04T06:13:19.785Z,7.34
2018-10-04T06:16:23.244Z,7.46
2018-10-04T06:19:26.748Z,7.58
2018-10-04T06:22:30.151Z,7.63
2018-10-04T06:25:33.547Z,7.75
2018-10-04T06:28:37.002Z,7.88
2018-10-04T06:31:40.461Z,8.01
2018-10-04T06:34:43.902Z,8.27
2018-10-04T06:37:47.354Z,8.42
2018-10-04T06:40:50.799Z,8.65
2018-10-04T06:43:54.367Z,8.81
2018-10-04T06:46:57.882Z,8.96
2018-10-04T06:50:01.415Z,9.08
2018-10-04T06:53:04.881Z,9.22
2018-10-04T06:56:08.381Z,9.39
2018-10-04T06:59:12.122Z,9.49
2018-10-04T07:02:15.586Z,9.61
2018-10-04T07:05:19.083Z,9.71
2018-10-04T07:08:24.236Z,9.80
2018-10-04T07:11:27.735Z,9.90
2018-10-04T07:14:31.446Z,10.02
2018-10-04T07:17:34.952Z,10.20
2018-10-04T07:20:38.422Z,10.34
2018-10-04T07:23:41.869Z,10.49
2018-10-04T07:26:45.405Z,10.60
2018-10-04T07:29:48.879Z,10.85
2018-10-04T07:32:52.392Z,10.96
2018-10-04T07:35:55.865Z,11.08
2018-10-04T07:38:59.256Z,11.21
2018-10-04T07:42:02.811Z,11.34
2018-10-04T07:45:06.293Z,11.48
2018-10-04T07:48:09.760Z,11.58
2018-10-04T07:51:13.187Z,11.73
2018-10-04T07:54:16.677Z,11.78
2018-10-04T07:57:20.064Z,12.00
2018-10-04T08:00:23.640Z,12.12
2018-10-04T08:03:26.978Z,12.34
2018-10-04T08:06:30.643Z,12.51
2018-10-04T08:09:33.856Z,12.58
2018-10-04T08:12:37.256Z,12.62
2018-10-04T08:15:40.706Z,12.78
2018-10-04T08:18:44.175Z,12.86
2018-10-04T08:21:47.554Z,12.98
2018-10-04T08:24:51.063Z,13.07
2018-10-04T08:27:54.459Z,13.10
2018-10-04T08:30:57.860Z,13.14
2018-10-04T08:34:01.279Z,13.26
2018-10-04T08:37:04.670Z,13.43
2018-10-04T08:40:08.090Z,13.62
2018-10-04T08:43:11.486Z,13.81
2018-10-04T08:46:14.860Z,13.82
2018-10-04T08:49:18.259Z,14.02
2018-10-04T08:52:27.070Z,14.24
2018-10-04T08:55:34.607Z,14.33
2018-10-04T08:58:38.061Z,14.46
2018-10-04T09:01:41.483Z,14.63
2018-10-04T09:04:44.887Z,14.73
2018-10-04T09:07:48.377Z,14.79
2018-10-04T09:10:51.692Z,14.79
2018-10-04T09:13:55.129Z,14.71
2018-10-04T09:16:58.556Z,14.70
2018-10-04T09:20:01.992Z,14.79
2018-10-04T09:23:05.420Z,14.95
2018-10-04T09:26:08.930Z,14.93
2018-10-04T09:29:13.144Z,14.94
2018-10-04T09:32:16.515Z,15.04
2018-10-04T09:35:20.322Z,15.15
2018-10-04T09:38:23.720Z,15.55
2018-10-04T09:41:27.515Z,15.60
2018-10-04T09:44:31.864Z,15.55
2018-10-04T09:47:35.723Z,15.39
2018-10-04T09:50:39.376Z,15.58
2018-10-04T09:53:47.979Z,15.60
2018-10-04T09:56:51.438Z,15.84
2018-10-04T09:59:55.059Z,16.01
2018-10-04T10:03:04.427Z,16.18
2018-10-04T10:06:08.110Z,16.12
2018-10-04T10:09:11.658Z,16.24
2018-10-04T10:12:15.156Z,16.32
2018-10-04T10:15:18.660Z,16.20
2018-10-04T10:18:22.138Z,16.22
2018-10-04T10:21:25.662Z,16.39
2018-10-04T10:24:29.168Z,16.50
2018-10-04T10:27:32.892Z,16.64
2018-10-04T10:30:36.451Z,16.71
2018-10-04T10:33:40.041Z,17.13
2018-10-04T10:36:43.496Z,17.37
2018-10-04T10:39:47.015Z,17.45
2018-10-04T10:42:51.515Z,17.26
2018-10-04T10:45:55.017Z,17.19
2018-10-04T10:48:58.517Z,17.38
2018-10-04T10:52:01.987Z,17.36
2018-10-04T10:55:05.518Z,17.15
2018-10-04T10:58:09.032Z,17.19
2018-10-04T11:01:12.649Z,17.59
2018-10-04T11:04:16.216Z,17.72
2018-10-04T11:07:19.759Z,17.88
2018-10-04T11:10:23.249Z,17.97
2018-10-04T11:13:26.731Z,18.28
2018-10-04T11:16:30.238Z,18.61
2018-10-04T11:19:33.769Z,18.51
2018-10-04T11:22:37.320Z,17.93
2018-10-04T11:25:40.800Z,17.95
2018-10-04T11:28:44.303Z,18.20
2018-10-04T11:31:47.757Z,18.38
2018-10-04T11:34:51.272Z,18.43
2018-10-04T11:37:54.814Z,18.38
2018-10-04T11:40:58.391Z,18.46
2018-10-04T11:44:06.963Z,18.46
2018-10-04T11:47:15.828Z,18.64
2018-10-04T11:50:22.182Z,18.68
2018-10-04T11:53:25.676Z,18.36
2018-10-04T11:56:29.184Z,18.49
2018-10-04T11:59:33.493Z,18.26
2018-10-04T12:02:38.252Z,18.26
2018-10-04T12:05:41.649Z,18.23
2018-10-04T12:08:45.136Z,18.21
2018-10-04T12:11:49.051Z,18.35
2018-10-04T12:14:52.826Z,18.44
2018-10-04T12:17:56.992Z,18.50
2018-10-04T12:21:00.752Z,18.55
2018-10-04T12:24:04.200Z,18.54
2018-10-04T12:27:07.763Z,18.63
2018-10-04T12:30:11.228Z,18.59
2018-10-04T12:33:14.721Z,18.58
2018-10-04T12:36:18.277Z,18.58
2018-10-04T12:39:21.692Z,18.60
2018-10-04T12:42:25.226Z,18.76
2018-10-04T12:45:28.696Z,18.94
2018-10-04T12:48:32.117Z,18.97
2018-10-04T12:51:35.578Z,18.92
2018-10-04T12:54:39.001Z,18.78
2018-10-04T12:57:42.399Z,18.99
2018-10-04T13:00:45.931Z,18.85
2018-10-04T13:03:49.390Z,18.86
2018-10-04T13:06:52.959Z,18.83
2018-10-04T13:09:56.357Z,18.84
2018-10-04T13:12:59.984Z,18.90
2018-10-04T13:16:03.604Z,19.07
2018-10-04T13:19:07.238Z,19.12
2018-10-04T13:22:10.788Z,19.11
2018-10-04T13:25:14.526Z,19.06
2018-10-04T13:28:18.117Z,19.09
2018-10-04T13:31:21.727Z,19.26
2018-10-04T13:34:25.202Z,19.35
2018-10-04T13:37:28.687Z,19.49
2018-10-04T13:40:32.232Z,19.56
2018-10-04T13:43:35.984Z,19.46
2018-10-04T13:46:39.552Z,19.40
2018-10-04T13:49:43.119Z,19.58
2018-10-04T13:52:46.599Z,19.74
2018-10-04T13:55:50.165Z,19.81
2018-10-04T13:58:53.759Z,19.89
2018-10-04T14:01:57.202Z,20.01
2018-10-04T14:05:00.677Z,20.10
2018-10-04T14:08:04.221Z,20.28
2018-10-04T14:11:07.751Z,20.40
2018-10-04T14:14:11.228Z,20.50
2018-10-04T14:17:14.777Z,20.59
2018-10-04T14:20:18.188Z,20.78
2018-10-04T14:23:21.611Z,20.88
2018-10-04T14:26:24.973Z,20.90
2018-10-04T14:29:28.513Z,20.83
2018-10-04T14:32:31.942Z,21.14
2018-10-04T14:35:35.376Z,21.36
2018-10-04T14:38:38.780Z,21.34
2018-10-04T14:41:42.182Z,21.30
2018-10-04T14:44:45.607Z,21.21
2018-10-04T14:47:48.977Z,21.07
2018-10-04T14:50:52.414Z,21.15
2018-10-04T14:53:55.946Z,21.15
2018-10-04T14:56:59.376Z,21.09
2018-10-04T15:00:02.843Z,20.85
2018-10-04T15:03:06.346Z,20.58
2018-10-04T15:06:09.688Z,20.48
2018-10-04T15:09:13.234Z,20.38
2018-10-04T15:12:16.593Z,20.32
2018-10-04T15:15:19.970Z,20.18
2018-10-04T15:18:23.393Z,20.16
2018-10-04T15:21:26.775Z,20.02
2018-10-04T15:24:30.298Z,19.95
2018-10-04T15:27:33.689Z,19.94
2018-10-04T15:30:37.094Z,19.82
2018-10-04T15:33:40.521Z,19.83
2018-10-04T15:36:44.011Z,19.82
2018-10-04T15:39:47.492Z,19.78
2018-10-04T15:42:51.085Z,19.87
2018-10-04T15:45:54.533Z,19.81
2018-10-04T15:48:58.108Z,19.81
2018-10-04T15:52:01.736Z,19.78
2018-10-04T15:55:05.273Z,19.81
2018-10-04T15:58:08.769Z,19.76
2018-10-04T16:01:12.526Z,19.64
2018-10-04T16:04:16.498Z,19.58
2018-10-04T16:07:20.011Z,19.49
2018-10-04T16:10:23.635Z,19.45
2018-10-04T16:13:27.064Z,19.46
2018-10-04T16:16:30.543Z,19.48
2018-10-04T16:19:34.051Z,19.41
2018-10-04T16:22:37.566Z,19.37
2018-10-04T16:25:41.157Z,19.31
2018-10-04T16:28:44.751Z,19.29
2018-10-04T16:31:48.415Z,19.26
2018-10-04T16:34:51.820Z,19.21
2018-10-04T16:37:55.280Z,19.15
2018-10-04T16:40:58.869Z,19.12
2018-10-04T16:44:02.411Z,19.09
2018-10-04T16:47:06.155Z,19.06
2018-10-04T16:50:10.432Z,18.99
2018-10-04T16:53:13.909Z,18.85
2018-10-04T16:56:17.405Z,18.75
2018-10-04T16:59:20.920Z,18.65
2018-10-04T17:02:24.588Z,18.52
2018-10-04T17:05:28.585Z,18.37
2018-10-04T17:08:32.110Z,18.20
2018-10-04T17:11:35.631Z,18.01
2018-10-04T17:14:39.162Z,17.85
2018-10-04T17:17:42.820Z,17.72
2018-10-04T17:20:46.265Z,17.55
2018-10-04T17:23:49.742Z,17.40
2018-10-04T17:26:53.189Z,17.29
2018-10-04T17:29:56.729Z,17.18
2018-10-04T17:33:00.183Z,17.05
2018-10-04T17:36:03.700Z,16.93
2018-10-04T17:39:07.818Z,16.84
2018-10-04T17:42:11.387Z,16.61
2018-10-04T17:45:16.019Z,16.42
2018-10-04T17:48:19.534Z,16.19
2018-10-04T17:51:22.997Z,16.14
2018-10-04T17:54:26.617Z,16.00
2018-10-04T17:57:29.985Z,15.86
2018-10-04T18:00:33.405Z,15.81
2018-10-04T18:03:36.811Z,15.80
2018-10-04T18:06:40.226Z,15.74
2018-10-04T18:09:43.709Z,15.65
2018-10-04T18:12:47.119Z,15.55
2018-10-04T18:15:50.526Z,15.44
2018-10-04T18:18:54.113Z,15.36
2018-10-04T18:21:57.538Z,15.33
2018-10-04T18:25:01.118Z,15.28
2018-10-04T18:28:04.810Z,15.23
2018-10-04T18:31:08.331Z,15.21
2018-10-04T18:34:11.918Z,15.15
2018-10-04T18:37:15.344Z,15.06
2018-10-04T18:40:18.887Z,14.90
2018-10-04T18:43:22.360Z,14.86
2018-10-04T18:46:25.762Z,14.78
2018-10-04T18:49:29.275Z,14.74
2018-10-04T18:52:32.791Z,14.68
2018-10-04T18:55:36.335Z,14.63
2018-10-04T18:58:39.748Z,14.50
2018-10-04T19:01:43.176Z,14.40
2018-10-04T19:04:46.966Z,14.26
2018-10-04T19:07:50.610Z,14.15
2018-10-04T19:10:54.094Z,14.11
2018-10-04T19:13:58.862Z,14.07
2018-10-04T19:17:02.327Z,13.97
2018-10-04T19:20:05.924Z,13.94
2018-10-04T19:23:09.311Z,13.88
2018-10-04T19:26:12.775Z,13.80
2018-10-04T19:29:16.350Z,13.75
2018-10-04T19:32:19.709Z,13.72
2018-10-04T19:35:23.200Z,13.65
2018-10-04T19:38:26.689Z,13.57
2018-10-04T19:41:30.113Z,13.53
2018-10-04T19:44:34.163Z,13.50
2018-10-04T19:47:37.522Z,13.47
2018-10-04T19:50:41.084Z,13.36
2018-10-04T19:53:44.533Z,13.32
2018-10-04T19:56:48.050Z,13.15
2018-10-04T19:59:51.432Z,13.06
2018-10-04T20:02:55.018Z,13.05
2018-10-04T20:05:58.434Z,12.96
2018-10-04T20:09:01.842Z,12.90
2018-10-04T20:12:05.248Z,12.85
2018-10-04T20:15:08.639Z,12.81
2018-10-04T20:18:12.379Z,12.74
2018-10-04T20:21:15.811Z,12.64
2018-10-04T20:24:19.348Z,12.60
2018-10-04T20:27:22.780Z,12.54
2018-10-04T20:30:26.149Z,12.41
2018-10-04T20:33:29.549Z,12.34
2018-10-04T20:36:32.995Z,12.26
2018-10-04T20:39:36.419Z,12.30
2018-10-04T20:42:40.288Z,12.28
2018-10-04T20:45:43.670Z,12.34
2018-10-04T20:48:47.977Z,12.33
2018-10-04T20:51:51.389Z,12.32
2018-10-04T20:54:54.801Z,12.23
2018-10-04T20:57:58.182Z,12.21
2018-10-04T21:01:01.697Z,12.21
2018-10-04T21:04:05.096Z,12.15
2018-10-04T21:07:08.819Z,12.05
2018-10-04T21:10:12.240Z,11.99
2018-10-04T21:13:15.795Z,11.95
2018-10-04T21:16:19.210Z,11.87
2018-10-04T21:19:22.709Z,11.80
2018-10-04T21:22:26.209Z,11.69
2018-10-04T21:25:29.790Z,11.63
2018-10-04T21:28:33.314Z,11.53
2018-10-04T21:31:36.773Z,11.51
2018-10-04T21:34:40.226Z,11.51
2018-10-04T21:37:43.730Z,11.46
2018-10-04T21:40:47.248Z,11.39
2018-10-04T21:43:50.717Z,11.34
2018-10-04T21:46:54.341Z,11.31
2018-10-04T21:49:57.826Z,11.30
2018-10-04T21:53:01.294Z,11.31
2018-10-04T21:56:04.837Z,11.29
2018-10-04T21:59:08.402Z,11.20
2018-10-04T22:02:11.827Z,11.08
2018-10-04T22:05:16.365Z,11.01
2018-10-04T22:08:20.406Z,11.02
2018-10-04T22:11:23.951Z,11.04
2018-10-04T22:14:27.495Z,10.98
2018-10-04T22:17:30.971Z,10.88
2018-10-04T22:20:34.939Z,10.79
2018-10-04T22:23:38.396Z,10.76
2018-10-04T22:26:41.917Z,10.75
2018-10-04T22:29:45.437Z,10.77
2018-10-04T22:32:48.931Z,10.72
2018-10-04T22:35:52.435Z,10.70
2018-10-04T22:38:55.996Z,10.69
2018-10-04T22:41:59.534Z,10.68
2018-10-04T22:45:03.020Z,10.61
2018-10-04T22:48:06.862Z,10.56
2018-10-04T22:51:10.565Z,10.54
2018-10-04T22:54:14.075Z,10.55
2018-10-04T22:57:17.542Z,10.58
2018-10-04T23:00:21.080Z,10.53
2018-10-04T23:03:24.538Z,10.53
2018-10-04T23:06:28.064Z,10.49
2018-10-04T23:09:31.556Z,10.46
2018-10-04T23:12:35.010Z,10.34
2018-10-04T23:15:38.442Z,10.27
2018-10-04T23:18:41.946Z,10.31
2018-10-04T23:21:45.487Z,10.40
2018-10-04T23:24:48.959Z,10.59
2018-10-04T23:27:52.541Z,10.89
2018-10-04T23:30:55.956Z,11.11
2018-10-04T23:33:59.470Z,11.28
2018-10-04T23:37:02.964Z,11.36
2018-10-04T23:40:07.222Z,11.38
2018-10-04T23:43:10.690Z,11.44
2018-10-04T23:46:14.198Z,11.44
2018-10-04T23:49:17.677Z,11.49
2018-10-04T23:52:21.079Z,11.51
2018-10-04T23:55:24.505Z,11.59
2018-10-04T23:58:28.276Z,11.60
